Time;durP1;ratioP1;P1;durP2;ratioP2;P2;SDS_P1;SDS_P2;PMS_P1;PMS_P2;Temp;Humidity;BMP_temperature;BMP_pressure;BME280_temperature;BME280_humidity;BME280_pressure;Samples;Min_cycle;Max_cycle;Signal;HPM_P1;HPM_P2
2022/11/21 00:00:06;;;;;;;35.23;20.20;;;;;;;;;;5089031;28;20478;-82
2022/11/21 00:02:34;;;;;;;28.97;20.47;;;;;;;;;;5081320;28;20471;-82
2022/11/21 00:05:00;;;;;;;31.03;21.47;;;;;;;;;;5088346;28;20470;-82
2022/11/21 00:07:29;;;;;;;23.53;17.33;;;;;;;;;;5086438;28;20470;-82
2022/11/21 00:09:56;;;;;;;30.00;18.77;;;;;;;;;;5090686;28;20465;-82
2022/11/21 00:12:22;;;;;;;25.33;18.00;;;;;;;;;;5086931;28;20473;-82
2022/11/21 00:14:50;;;;;;;25.50;18.77;;;;;;;;;;5083869;28;20461;-82
2022/11/21 00:17:19;;;;;;;27.67;18.80;;;;;;;;;;5085735;28;20561;-82
2022/11/21 00:19:46;;;;;;;25.80;17.23;;;;;;;;;;5090342;28;20474;-82
2022/11/21 00:22:13;;;;;;;28.20;21.60;;;;;;;;;;5082524;28;20466;-82
2022/11/21 00:24:39;;;;;;;24.67;17.70;;;;;;;;;;5090681;28;20466;-82
2022/11/21 00:27:06;;;;;;;25.57;17.87;;;;;;;;;;5087891;28;20478;-82
2022/11/21 00:29:33;;;;;;;30.07;19.87;;;;;;;;;;5090297;28;20454;-82
2022/11/21 00:32:01;;;;;;;30.53;20.30;;;;;;;;;;5087727;28;20477;-82
2022/11/21 00:34:27;;;;;;;27.43;19.00;;;;;;;;;;5085845;28;20450;-82
2022/11/21 00:36:54;;;;;;;26.10;18.30;;;;;;;;;;5089896;28;20995;-82
2022/11/21 00:39:21;;;;;;;24.10;18.40;;;;;;;;;;5087145;28;20505;-82
2022/11/21 00:41:48;;;;;;;26.87;19.27;;;;;;;;;;5086082;28;20463;-82
2022/11/21 00:44:14;;;;;;;28.50;19.50;;;;;;;;;;5074567;28;20434;-82
2022/11/21 00:46:41;;;;;;;24.73;17.60;;;;;;;;;;5089519;28;20988;-82
2022/11/21 00:49:09;;;;;;;27.70;18.67;;;;;;;;;;5089386;28;20470;-82
2022/11/21 00:51:35;;;;;;;25.07;18.07;;;;;;;;;;5087615;28;20463;-82
2022/11/21 00:54:01;;;;;;;20.57;16.40;;;;;;;;;;5085293;28;20459;-82
2022/11/21 00:56:28;;;;;;;24.93;17.90;;;;;;;;;;5087554;28;20469;-82
2022/11/21 00:58:56;;;;;;;26.90;18.57;;;;;;;;;;5092125;28;20471;-83
2022/11/21 01:01:23;;;;;;;27.33;18.63;;;;;;;;;;5088731;28;20484;-82
2022/11/21 01:03:50;;;;;;;25.63;16.53;;;;;;;;;;5088370;28;21039;-82
2022/11/21 01:06:18;;;;;;;28.07;18.80;;;;;;;;;;5088913;28;20479;-82
2022/11/21 01:08:45;;;;;;;27.80;17.17;;;;;;;;;;5087082;28;20471;-82
2022/11/21 01:11:12;;;;;;;24.30;17.50;;;;;;;;;;5087176;28;20467;-82
2022/11/21 01:13:39;;;;;;;22.27;17.07;;;;;;;;;;5076901;28;20543;-82
2022/11/21 01:16:07;;;;;;;31.07;18.57;;;;;;;;;;5083879;28;20478;-82
2022/11/21 01:18:34;;;;;;;29.63;18.07;;;;;;;;;;5091318;28;20479;-82
2022/11/21 01:21:00;;;;;;;22.10;16.93;;;;;;;;;;5081799;28;22047;-82
2022/11/21 01:23:28;;;;;;;27.87;19.13;;;;;;;;;;5086618;28;20466;-82
2022/11/21 01:25:55;;;;;;;30.60;18.53;;;;;;;;;;5083617;28;20475;-82
2022/11/21 01:28:22;;;;;;;28.57;18.70;;;;;;;;;;5087243;28;20483;-82
2022/11/21 01:30:48;;;;;;;25.53;19.17;;;;;;;;;;5084893;28;20471;-82
2022/11/21 01:33:15;;;;;;;29.23;19.13;;;;;;;;;;5087078;28;20976;-82
2022/11/21 01:35:41;;;;;;;35.77;20.67;;;;;;;;;;5089540;28;20459;-82
2022/11/21 01:38:07;;;;;;;26.97;19.00;;;;;;;;;;5086524;28;20474;-82
2022/11/21 01:40:39;;;;;;;33.90;20.60;;;;;;;;;;5088640;28;20475;-82
2022/11/21 01:43:11;;;;;;;24.27;18.40;;;;;;;;;;5085201;28;20469;-82
2022/11/21 01:46:01;;;;;;;30.60;19.33;;;;;;;;;;5086787;28;20496;-82
2022/11/21 01:48:31;;;;;;;28.27;18.77;;;;;;;;;;5064644;28;20473;-82
2022/11/21 01:50:59;;;;;;;31.43;20.67;;;;;;;;;;5085508;28;20493;-82
2022/11/21 01:53:26;;;;;;;29.07;20.43;;;;;;;;;;5085060;28;20465;-82
2022/11/21 01:55:55;;;;;;;24.63;17.80;;;;;;;;;;5085115;28;20483;-82
2022/11/21 01:58:23;;;;;;;27.40;18.53;;;;;;;;;;5083937;28;20479;-82
2022/11/21 02:00:50;;;;;;;26.47;17.23;;;;;;;;;;5083825;28;20479;-82
2022/11/21 02:03:19;;;;;;;32.07;19.47;;;;;;;;;;5086321;28;20473;-82
2022/11/21 02:05:46;;;;;;;25.23;18.87;;;;;;;;;;5087109;28;20486;-82
2022/11/21 02:08:14;;;;;;;29.67;19.00;;;;;;;;;;5087306;28;20483;-82
2022/11/21 02:10:42;;;;;;;28.07;19.30;;;;;;;;;;5085897;28;20474;-82
2022/11/21 02:13:12;;;;;;;31.23;18.87;;;;;;;;;;5088284;28;20455;-82
2022/11/21 02:15:40;;;;;;;25.87;18.23;;;;;;;;;;5086713;28;20470;-82
2022/11/21 02:18:10;;;;;;;28.17;19.03;;;;;;;;;;5087631;28;20475;-82
2022/11/21 02:20:37;;;;;;;25.73;17.37;;;;;;;;;;5082552;28;20491;-82
2022/11/21 02:23:09;;;;;;;27.47;18.63;;;;;;;;;;5090817;28;20451;-82
2022/11/21 02:25:37;;;;;;;32.33;18.93;;;;;;;;;;5087656;28;20458;-81
2022/11/21 02:28:07;;;;;;;28.87;18.07;;;;;;;;;;5091387;28;20482;-82
2022/11/21 02:30:35;;;;;;;25.17;18.10;;;;;;;;;;5091589;28;20466;-82
2022/11/21 02:33:02;;;;;;;25.03;18.27;;;;;;;;;;5088592;28;20442;-82
2022/11/21 02:35:29;;;;;;;27.07;18.13;;;;;;;;;;5087621;28;20466;-82
2022/11/21 02:37:58;;;;;;;23.87;17.97;;;;;;;;;;5091868;28;20860;-82
2022/11/21 02:40:27;;;;;;;20.83;16.50;;;;;;;;;;5091081;28;20475;-82
2022/11/21 02:43:00;;;;;;;27.97;18.40;;;;;;;;;;5090615;28;20447;-82
2022/11/21 02:45:30;;;;;;;34.43;17.77;;;;;;;;;;5086949;28;20470;-82
2022/11/21 02:47:57;;;;;;;28.57;17.50;;;;;;;;;;5088508;28;20477;-81
2022/11/21 02:50:26;;;;;;;29.30;17.67;;;;;;;;;;5088677;28;20484;-82
2022/11/21 02:52:54;;;;;;;24.63;17.10;;;;;;;;;;5087848;28;20451;-82
2022/11/21 02:55:23;;;;;;;26.60;18.53;;;;;;;;;;5087968;28;20533;-82
2022/11/21 02:57:53;;;;;;;27.90;19.00;;;;;;;;;;5089471;28;20943;-82
2022/11/21 03:00:22;;;;;;;27.70;18.27;;;;;;;;;;5087194;28;20465;-82
2022/11/21 03:02:49;;;;;;;28.63;18.00;;;;;;;;;;5082730;28;20446;-81
2022/11/21 03:05:19;;;;;;;27.23;19.47;;;;;;;;;;5085142;28;20465;-82
2022/11/21 03:07:47;;;;;;;29.10;17.27;;;;;;;;;;5087892;28;20485;-81
2022/11/21 03:10:14;;;;;;;27.27;17.80;;;;;;;;;;5064692;28;20444;-82
2022/11/21 03:12:42;;;;;;;23.83;17.27;;;;;;;;;;5087390;28;20462;-82
2022/11/21 03:15:11;;;;;;;25.70;17.90;;;;;;;;;;5086171;28;20470;-82
2022/11/21 03:17:42;;;;;;;26.60;18.53;;;;;;;;;;5064841;28;20557;-82
2022/11/21 03:20:10;;;;;;;23.17;16.40;;;;;;;;;;5083171;28;20470;-81
2022/11/21 03:22:36;;;;;;;20.50;15.70;;;;;;;;;;5087028;28;20468;-82
2022/11/21 03:25:03;;;;;;;26.23;16.90;;;;;;;;;;5088673;28;20453;-81
2022/11/21 03:27:29;;;;;;;22.30;16.63;;;;;;;;;;5091131;28;20469;-82
2022/11/21 03:29:56;;;;;;;28.97;19.17;;;;;;;;;;5084241;28;20975;-82
2022/11/21 03:32:25;;;;;;;22.63;15.77;;;;;;;;;;5087318;28;20494;-82
2022/11/21 03:34:53;;;;;;;35.43;20.40;;;;;;;;;;5090878;28;20529;-82
2022/11/21 03:37:20;;;;;;;24.50;17.80;;;;;;;;;;5085082;28;20481;-82
2022/11/21 03:39:48;;;;;;;26.27;16.20;;;;;;;;;;5089056;28;20478;-82
2022/11/21 03:42:14;;;;;;;27.40;18.35;;;;;;;;;;5071733;28;20487;-82
2022/11/21 03:44:42;;;;;;;24.20;18.00;;;;;;;;;;5092081;28;20195;-82
2022/11/21 03:47:11;;;;;;;24.07;16.67;;;;;;;;;;5087497;28;20483;-82
2022/11/21 03:49:40;;;;;;;28.80;18.20;;;;;;;;;;5093752;28;20439;-82
2022/11/21 03:52:09;;;;;;;21.80;17.07;;;;;;;;;;5084885;28;20477;-82
2022/11/21 03:54:36;;;;;;;25.67;18.10;;;;;;;;;;5089192;28;20438;-82
2022/11/21 03:57:03;;;;;;;27.20;18.03;;;;;;;;;;5087348;28;21965;-82
2022/11/21 03:59:29;;;;;;;23.83;17.50;;;;;;;;;;5087001;28;20465;-81
2022/11/21 04:01:55;;;;;;;24.67;17.47;;;;;;;;;;5081896;28;20489;-82
2022/11/21 04:04:23;;;;;;;27.13;19.10;;;;;;;;;;5085910;28;20461;-82
2022/11/21 04:06:50;;;;;;;28.73;17.73;;;;;;;;;;5084262;28;20481;-82
2022/11/21 04:09:20;;;;;;;25.73;15.90;;;;;;;;;;5083298;28;20461;-82
2022/11/21 04:11:47;;;;;;;28.10;18.03;;;;;;;;;;5085705;28;20498;-82
2022/11/21 04:14:13;;;;;;;27.67;17.30;;;;;;;;;;5082809;28;20888;-82
2022/11/21 04:16:40;;;;;;;23.93;17.23;;;;;;;;;;5078192;28;20478;-82
2022/11/21 04:19:06;;;;;;;24.58;17.20;;;;;;;;;;5084718;28;20543;-82
2022/11/21 04:21:33;;;;;;;35.30;18.57;;;;;;;;;;5087115;28;20231;-82
2022/11/21 04:24:00;;;;;;;26.03;16.70;;;;;;;;;;5089835;28;20468;-82
2022/11/21 04:26:30;;;;;;;24.60;15.73;;;;;;;;;;5075226;28;20468;-82
2022/11/21 04:28:58;;;;;;;27.20;18.50;;;;;;;;;;5096194;28;20475;-82
2022/11/21 04:31:24;;;;;;;28.15;17.65;;;;;;;;;;5086789;28;20482;-82
2022/11/21 04:33:53;;;;;;;28.30;18.42;;;;;;;;;;5091067;28;20209;-82
2022/11/21 04:36:19;;;;;;;27.93;17.13;;;;;;;;;;5091562;28;20220;-81
2022/11/21 04:38:46;;;;;;;28.60;18.50;;;;;;;;;;5084537;28;20506;-82
2022/11/21 04:41:13;;;;;;;24.93;16.33;;;;;;;;;;5079983;28;20488;-82
2022/11/21 04:43:41;;;;;;;25.40;18.50;;;;;;;;;;5071834;28;20461;-82
2022/11/21 04:46:08;;;;;;;25.90;16.27;;;;;;;;;;5087700;28;21010;-82
2022/11/21 04:48:35;;;;;;;26.23;16.67;;;;;;;;;;5087596;28;20238;-82
2022/11/21 04:51:01;;;;;;;29.47;18.27;;;;;;;;;;5086844;28;20484;-82
2022/11/21 04:53:28;;;;;;;24.87;17.63;;;;;;;;;;5093109;28;20532;-81
2022/11/21 04:55:56;;;;;;;29.17;18.27;;;;;;;;;;5090161;28;20472;-82
2022/11/21 04:58:22;;;;;;;22.60;17.00;;;;;;;;;;5092515;28;20219;-82
2022/11/21 05:00:50;;;;;;;26.08;17.33;;;;;;;;;;5090249;28;20485;-81
2022/11/21 05:03:17;;;;;;;27.58;17.27;;;;;;;;;;5092120;28;20196;-81
2022/11/21 05:05:43;;;;;;;23.87;17.73;;;;;;;;;;5084708;28;20247;-80
2022/11/21 05:08:10;;;;;;;22.80;15.82;;;;;;;;;;5085455;28;20990;-80
2022/11/21 05:13:19;;;;;;;24.17;15.85;;;;;;;;;;5090273;28;20219;-80
2022/11/21 05:13:27;;;;;;;23.97;16.47;;;;;;;;;;5084937;28;20723;-80
2022/11/21 05:16:00;;;;;;;28.57;18.13;;;;;;;;;;5083659;28;20485;-80
2022/11/21 05:18:28;;;;;;;25.95;15.73;;;;;;;;;;5086514;28;20233;-80
2022/11/21 05:20:54;;;;;;;19.52;15.25;;;;;;;;;;5085490;28;20224;-80
2022/11/21 05:23:21;;;;;;;29.17;17.60;;;;;;;;;;5088269;28;20210;-80
2022/11/21 05:25:47;;;;;;;25.17;18.30;;;;;;;;;;5087816;28;20226;-80
2022/11/21 05:28:14;;;;;;;36.17;18.47;;;;;;;;;;5090854;28;20227;-80
2022/11/21 05:30:40;;;;;;;29.63;18.52;;;;;;;;;;5087996;28;20494;-80
2022/11/21 05:33:08;;;;;;;26.88;16.85;;;;;;;;;;5088684;28;20203;-80
2022/11/21 05:35:39;;;;;;;29.05;19.13;;;;;;;;;;5094748;28;20220;-81
2022/11/21 05:38:13;;;;;;;25.77;18.25;;;;;;;;;;5068163;28;20229;-80
2022/11/21 05:40:40;;;;;;;24.80;16.73;;;;;;;;;;5089397;28;20682;-80
2022/11/21 05:45:50;;;;;;;25.88;18.50;;;;;;;;;;5078793;28;20484;-80
2022/11/21 05:48:18;;;;;;;28.05;18.77;;;;;;;;;;5081301;28;20290;-81
2022/11/21 05:50:53;;;;;;;26.33;16.30;;;;;;;;;;5090960;28;20233;-80
2022/11/21 05:53:21;;;;;;;26.38;17.83;;;;;;;;;;5090315;28;20206;-82
2022/11/21 05:55:48;;;;;;;28.88;20.67;;;;;;;;;;5088407;28;20230;-80
2022/11/21 05:58:16;;;;;;;25.05;18.40;;;;;;;;;;5087358;28;20228;-80
2022/11/21 06:00:44;;;;;;;31.95;18.67;;;;;;;;;;5087182;28;20228;-80
2022/11/21 06:03:29;;;;;;;25.45;18.45;;;;;;;;;;5086203;28;20299;-81
2022/11/21 06:06:13;;;;;;;30.20;18.75;;;;;;;;;;5088687;28;20228;-82
2022/11/21 06:08:44;;;;;;;45.28;18.65;;;;;;;;;;5082739;28;20288;-82
2022/11/21 06:11:12;;;;;;;47.85;18.75;;;;;;;;;;5088878;28;20228;-81
2022/11/21 06:13:39;;;;;;;53.83;18.35;;;;;;;;;;5086306;28;20200;-81
2022/11/21 06:16:08;;;;;;;42.80;20.40;;;;;;;;;;5091843;28;20223;-81
2022/11/21 06:18:36;;;;;;;67.28;20.00;;;;;;;;;;5088077;28;20222;-82
2022/11/21 06:21:07;;;;;;;54.25;22.08;;;;;;;;;;5085260;28;20242;-81
2022/11/21 06:23:34;;;;;;;53.75;18.60;;;;;;;;;;5086491;28;20694;-81
2022/11/21 06:26:04;;;;;;;43.78;21.42;;;;;;;;;;5090220;28;20235;-81
2022/11/21 06:28:32;;;;;;;62.42;21.90;;;;;;;;;;5091969;28;20223;-82
2022/11/21 06:31:05;;;;;;;39.47;19.95;;;;;;;;;;5082118;28;20280;-81
2022/11/21 06:33:33;;;;;;;35.10;20.23;;;;;;;;;;5095929;28;20206;-81
2022/11/21 06:36:02;;;;;;;31.38;20.27;;;;;;;;;;5085144;28;20710;-81
2022/11/21 06:38:30;;;;;;;33.90;20.08;;;;;;;;;;5092070;28;20231;-81
2022/11/21 06:40:56;;;;;;;37.88;19.88;;;;;;;;;;5093743;28;20232;-81
2022/11/21 06:43:23;;;;;;;32.78;20.30;;;;;;;;;;5090615;28;20212;-81
2022/11/21 06:45:53;;;;;;;32.60;19.80;;;;;;;;;;5092124;28;20220;-81
2022/11/21 06:48:20;;;;;;;25.63;20.02;;;;;;;;;;5087437;28;20241;-81
2022/11/21 06:50:47;;;;;;;27.63;20.10;;;;;;;;;;5087800;28;20308;-82
2022/11/21 06:53:13;;;;;;;28.83;19.80;;;;;;;;;;5081680;28;20208;-81
2022/11/21 06:55:44;;;;;;;33.72;21.20;;;;;;;;;;5088246;28;20224;-82
2022/11/21 06:58:10;;;;;;;34.25;21.27;;;;;;;;;;5088168;28;20218;-81
2022/11/21 07:00:37;;;;;;;31.27;19.65;;;;;;;;;;5064354;28;20610;-82
2022/11/21 07:03:04;;;;;;;27.65;21.77;;;;;;;;;;5076484;28;20688;-81
2022/11/21 07:05:34;;;;;;;25.95;18.95;;;;;;;;;;5086801;28;20223;-81
2022/11/21 07:08:02;;;;;;;32.13;19.92;;;;;;;;;;5091583;28;20243;-81
2022/11/21 07:10:30;;;;;;;35.65;22.70;;;;;;;;;;5076132;28;20989;-81
2022/11/21 07:15:42;;;;;;;32.60;20.55;;;;;;;;;;5086343;28;20292;-82
2022/11/21 07:18:08;;;;;;;30.17;20.50;;;;;;;;;;5086466;28;20600;-80
2022/11/21 07:20:35;;;;;;;34.58;19.67;;;;;;;;;;5086847;28;20236;-81
2022/11/21 07:23:01;;;;;;;32.08;22.00;;;;;;;;;;5085800;28;20230;-81
2022/11/21 07:25:29;;;;;;;33.17;23.60;;;;;;;;;;5082775;28;20231;-81
2022/11/21 07:27:59;;;;;;;38.05;23.48;;;;;;;;;;5082657;28;20240;-81
2022/11/21 07:30:25;;;;;;;43.65;24.73;;;;;;;;;;5082628;28;20210;-81
2022/11/21 07:32:55;;;;;;;36.17;21.70;;;;;;;;;;5088893;28;20284;-81
2022/11/21 07:35:22;;;;;;;38.03;22.67;;;;;;;;;;5086767;28;20649;-81
2022/11/21 07:37:49;;;;;;;37.53;24.55;;;;;;;;;;5083936;28;20276;-81
2022/11/21 07:40:16;;;;;;;36.75;23.77;;;;;;;;;;5080757;28;20258;-81
2022/11/21 07:42:43;;;;;;;36.35;24.33;;;;;;;;;;5085598;28;20231;-81
2022/11/21 07:45:13;;;;;;;34.60;21.70;;;;;;;;;;5089236;28;20208;-81
2022/11/21 07:47:40;;;;;;;35.90;23.17;;;;;;;;;;5088113;28;20247;-81
2022/11/21 07:50:09;;;;;;;40.28;24.10;;;;;;;;;;5087667;28;20950;-81
2022/11/21 07:52:36;;;;;;;36.30;23.70;;;;;;;;;;5086379;28;20496;-81
2022/11/21 07:55:05;;;;;;;38.55;22.45;;;;;;;;;;5084926;28;20469;-81
2022/11/21 07:57:33;;;;;;;33.45;23.67;;;;;;;;;;5081809;28;20227;-82
2022/11/21 08:00:03;;;;;;;32.67;22.42;;;;;;;;;;5090185;28;20205;-81
2022/11/21 08:02:33;;;;;;;44.83;24.80;;;;;;;;;;5093050;28;20232;-81
2022/11/21 08:04:59;;;;;;;45.63;23.30;;;;;;;;;;5095495;28;20202;-81
2022/11/21 08:07:25;;;;;;;53.00;25.93;;;;;;;;;;5083226;28;20483;-82
2022/11/21 08:09:52;;;;;;;37.47;26.25;;;;;;;;;;5091643;28;20470;-81
2022/11/21 08:12:19;;;;;;;62.87;26.00;;;;;;;;;;5096397;28;20213;-81
2022/11/21 08:14:46;;;;;;;50.83;27.75;;;;;;;;;;5086873;28;20465;-81
2022/11/21 08:17:19;;;;;;;47.88;27.00;;;;;;;;;;5092636;28;20239;-81
2022/11/21 08:19:47;;;;;;;50.40;28.17;;;;;;;;;;5093784;28;20229;-81
2022/11/21 08:22:13;;;;;;;44.83;30.13;;;;;;;;;;5090179;28;20221;-81
2022/11/21 08:24:40;;;;;;;39.33;27.92;;;;;;;;;;5096982;28;20214;-81
2022/11/21 08:27:06;;;;;;;41.90;27.00;;;;;;;;;;5094815;28;20242;-81
2022/11/21 08:29:33;;;;;;;44.00;25.90;;;;;;;;;;5092756;28;20462;-81
2022/11/21 08:31:59;;;;;;;40.90;26.70;;;;;;;;;;5091755;28;20472;-81
2022/11/21 08:34:26;;;;;;;49.97;27.70;;;;;;;;;;5096907;28;20833;-81
2022/11/21 08:36:54;;;;;;;48.07;29.30;;;;;;;;;;5089781;28;20238;-81
2022/11/21 08:39:21;;;;;;;44.07;26.50;;;;;;;;;;5090007;28;20446;-81
2022/11/21 08:42:02;;;;;;;43.93;29.07;;;;;;;;;;5065791;28;20490;-81
2022/11/21 08:44:29;;;;;;;41.43;26.30;;;;;;;;;;5088357;28;20501;-82
2022/11/21 08:46:56;;;;;;;46.40;27.90;;;;;;;;;;5091431;28;20467;-82
2022/11/21 08:49:22;;;;;;;46.50;30.87;;;;;;;;;;5093858;28;20442;-82
2022/11/21 08:51:50;;;;;;;45.83;28.33;;;;;;;;;;5086898;28;20458;-82
2022/11/21 08:54:22;;;;;;;46.88;29.45;;;;;;;;;;5089964;28;20506;-81
2022/11/21 08:56:49;;;;;;;48.63;29.77;;;;;;;;;;5090919;28;20277;-82
2022/11/21 08:59:15;;;;;;;51.20;30.40;;;;;;;;;;5087169;28;20525;-82
2022/11/21 09:01:42;;;;;;;50.93;28.00;;;;;;;;;;5087245;28;20475;-81
2022/11/21 09:04:10;;;;;;;47.97;29.90;;;;;;;;;;5087966;28;20482;-81
2022/11/21 09:06:45;;;;;;;51.70;31.73;;;;;;;;;;5084081;28;20481;-82
2022/11/21 09:09:11;;;;;;;52.57;29.37;;;;;;;;;;5089654;28;20518;-82
2022/11/21 09:11:40;;;;;;;41.27;27.57;;;;;;;;;;5090212;28;21014;-82
2022/11/21 09:19:34;;;;;;;46.97;29.63;;;;;;;;;;5091372;28;20418;-83
2022/11/21 09:22:01;;;;;;;44.77;27.23;;;;;;;;;;5085064;28;20477;-80
2022/11/21 09:24:27;;;;;;;44.53;29.43;;;;;;;;;;5061726;28;20466;-81
2022/11/21 09:26:55;;;;;;;42.97;28.63;;;;;;;;;;5086668;28;21009;-80
2022/11/21 09:29:21;;;;;;;42.83;27.50;;;;;;;;;;5086187;28;20450;-80
2022/11/21 09:31:48;;;;;;;47.80;28.20;;;;;;;;;;5086310;28;20470;-80
2022/11/21 09:34:14;;;;;;;45.47;28.00;;;;;;;;;;5087017;28;20963;-81
2022/11/21 09:36:40;;;;;;;38.27;25.20;;;;;;;;;;5082704;28;20483;-81
2022/11/21 09:39:07;;;;;;;42.23;26.27;;;;;;;;;;5089017;28;20466;-80
2022/11/21 09:41:53;;;;;;;40.20;24.73;;;;;;;;;;5088195;28;20470;-81
2022/11/21 09:44:40;;;;;;;43.20;25.47;;;;;;;;;;5087424;28;20459;-80
2022/11/21 09:47:16;;;;;;;36.47;22.60;;;;;;;;;;5078949;28;20471;-81
2022/11/21 09:49:46;;;;;;;49.47;28.60;;;;;;;;;;5090025;28;20470;-81
2022/11/21 09:52:14;;;;;;;43.30;26.20;;;;;;;;;;5083207;28;20471;-81
2022/11/21 09:54:42;;;;;;;38.63;26.00;;;;;;;;;;5087898;28;20445;-81
2022/11/21 09:57:10;;;;;;;42.83;28.50;;;;;;;;;;5083868;28;20471;-81
2022/11/21 09:59:38;;;;;;;43.87;28.73;;;;;;;;;;5087005;28;20470;-81
2022/11/21 10:02:13;;;;;;;37.77;25.83;;;;;;;;;;5089462;28;20474;-81
2022/11/21 10:04:40;;;;;;;39.40;25.63;;;;;;;;;;5086788;28;20456;-82
2022/11/21 10:07:09;;;;;;;41.97;26.93;;;;;;;;;;5068067;28;20489;-81
2022/11/21 10:09:45;;;;;;;39.20;24.97;;;;;;;;;;5086814;28;20462;-81
2022/11/21 10:12:37;;;;;;;41.30;25.77;;;;;;;;;;5067020;28;20468;-81
2022/11/21 10:15:12;;;;;;;39.83;25.10;;;;;;;;;;5088196;28;20452;-81
2022/11/21 10:17:47;;;;;;;45.47;27.20;;;;;;;;;;5088859;28;20495;-81
2022/11/21 10:20:26;;;;;;;41.93;25.30;;;;;;;;;;5083268;28;20445;-81
2022/11/21 10:23:02;;;;;;;40.40;25.90;;;;;;;;;;5089030;28;20471;-83
2022/11/21 10:25:30;;;;;;;40.30;24.20;;;;;;;;;;5083741;28;20846;-82
2022/11/21 10:27:59;;;;;;;40.13;25.20;;;;;;;;;;5089080;28;20463;-82
2022/11/21 10:30:28;;;;;;;41.03;26.73;;;;;;;;;;5085566;28;20458;-82
2022/11/21 10:32:58;;;;;;;33.00;24.00;;;;;;;;;;5083738;28;21007;-82
2022/11/21 10:35:25;;;;;;;36.13;24.20;;;;;;;;;;5084964;28;20463;-82
2022/11/21 10:37:52;;;;;;;38.37;24.10;;;;;;;;;;5067633;28;20492;-82
2022/11/21 10:40:23;;;;;;;42.20;25.63;;;;;;;;;;5086072;28;20517;-82
2022/11/21 10:42:53;;;;;;;43.90;26.70;;;;;;;;;;5086041;28;20486;-83
2022/11/21 10:45:19;;;;;;;36.67;24.30;;;;;;;;;;5083046;28;20443;-82
2022/11/21 10:47:46;;;;;;;40.27;26.23;;;;;;;;;;5088549;28;20550;-83
2022/11/21 10:50:27;;;;;;;37.40;25.03;;;;;;;;;;5086807;28;20204;-82
2022/11/21 10:53:00;;;;;;;36.57;23.87;;;;;;;;;;5078843;28;20484;-82
2022/11/21 10:55:27;;;;;;;38.73;25.23;;;;;;;;;;5080353;28;20459;-82
2022/11/21 10:57:54;;;;;;;41.53;24.60;;;;;;;;;;5088265;28;20472;-82
2022/11/21 11:00:24;;;;;;;40.93;27.20;;;;;;;;;;5086157;28;20455;-82
2022/11/21 11:03:03;;;;;;;41.33;25.50;;;;;;;;;;5087751;28;20518;-83
2022/11/21 11:05:30;;;;;;;35.43;24.23;;;;;;;;;;5086516;28;20462;-83
2022/11/21 11:08:02;;;;;;;32.90;22.70;;;;;;;;;;5085137;28;20468;-82
2022/11/21 11:10:29;;;;;;;35.03;24.57;;;;;;;;;;5086549;28;20485;-84
2022/11/21 11:15:53;;;;;;;35.47;23.73;;;;;;;;;;5086559;28;20550;-82
2022/11/21 11:18:21;;;;;;;35.50;24.90;;;;;;;;;;5084629;28;20482;-82
2022/11/21 11:20:47;;;;;;;33.30;23.60;;;;;;;;;;5082578;28;20856;-82
2022/11/21 11:23:23;;;;;;;37.63;22.80;;;;;;;;;;5093069;28;20491;-82
2022/11/21 11:25:51;;;;;;;38.10;22.70;;;;;;;;;;5088238;28;20476;-83
2022/11/21 11:28:18;;;;;;;29.07;21.83;;;;;;;;;;5085435;28;20497;-82
2022/11/21 11:30:47;;;;;;;34.20;23.07;;;;;;;;;;5084586;28;20542;-82
2022/11/21 11:33:34;;;;;;;33.50;22.50;;;;;;;;;;5085050;28;20489;-81
2022/11/21 11:36:12;;;;;;;33.20;20.80;;;;;;;;;;5083667;28;20497;-81
2022/11/21 11:38:41;;;;;;;28.40;19.63;;;;;;;;;;5092353;28;21095;-82
2022/11/21 11:41:13;;;;;;;31.70;20.80;;;;;;;;;;5089870;28;20477;-82
2022/11/21 11:49:16;;;;;;;31.23;20.10;;;;;;;;;;5065568;28;20445;-82
2022/11/21 11:51:46;;;;;;;30.17;18.53;;;;;;;;;;5085695;28;20470;-82
2022/11/21 11:54:16;;;;;;;27.50;18.03;;;;;;;;;;5066195;28;20441;-82
2022/11/21 11:56:43;;;;;;;28.60;20.27;;;;;;;;;;5086909;28;20470;-82
2022/11/21 11:59:13;;;;;;;35.20;21.03;;;;;;;;;;5089905;28;20571;-83
2022/11/21 12:01:45;;;;;;;30.83;19.30;;;;;;;;;;5062008;28;20944;-81
2022/11/21 12:04:13;;;;;;;32.03;20.80;;;;;;;;;;5084820;28;20850;-79
2022/11/21 12:06:43;;;;;;;28.40;19.33;;;;;;;;;;5082681;28;20469;-80
2022/11/21 12:09:15;;;;;;;28.10;19.83;;;;;;;;;;5084239;28;20435;-80
2022/11/21 12:12:08;;;;;;;31.07;19.17;;;;;;;;;;5081250;28;20469;-80
2022/11/21 12:17:42;;;;;;;26.30;18.73;;;;;;;;;;5078784;28;20478;-80
2022/11/21 12:20:14;;;;;;;34.63;20.87;;;;;;;;;;5085014;28;20462;-80
2022/11/21 12:22:42;;;;;;;29.10;20.20;;;;;;;;;;5084510;28;21002;-80
2022/11/21 12:25:10;;;;;;;32.37;19.20;;;;;;;;;;5079857;28;20471;-80
2022/11/21 12:27:40;;;;;;;25.50;18.13;;;;;;;;;;5079978;28;20457;-80
2022/11/21 12:30:19;;;;;;;29.83;19.83;;;;;;;;;;5083506;28;20446;-80
2022/11/21 12:32:54;;;;;;;26.17;18.37;;;;;;;;;;5082564;28;20455;-80
2022/11/21 12:35:27;;;;;;;27.33;18.30;;;;;;;;;;5086938;28;20465;-80
2022/11/21 12:37:57;;;;;;;27.27;18.60;;;;;;;;;;5087176;28;20459;-80
2022/11/21 12:40:30;;;;;;;29.60;18.30;;;;;;;;;;5089406;28;20473;-83
2022/11/21 12:43:04;;;;;;;25.13;17.10;;;;;;;;;;5083462;28;21004;-79
2022/11/21 12:45:31;;;;;;;27.50;17.50;;;;;;;;;;5087274;28;20886;-81
2022/11/21 12:54:32;;;;;;;26.13;17.00;;;;;;;;;;5081920;28;20920;-80
2022/11/21 12:57:03;;;;;;;24.43;16.40;;;;;;;;;;5079634;28;20469;-81
2022/11/21 12:59:31;;;;;;;24.10;15.90;;;;;;;;;;5084182;28;20446;-80
2022/11/21 13:02:03;;;;;;;25.90;15.90;;;;;;;;;;5077211;28;20471;-80
2022/11/21 13:04:33;;;;;;;27.30;15.90;;;;;;;;;;5082298;28;20478;-81
2022/11/21 13:06:59;;;;;;;25.60;15.40;;;;;;;;;;5083767;28;20482;-80
2022/11/21 13:09:27;;;;;;;22.63;15.57;;;;;;;;;;5079222;28;20470;-80
2022/11/21 13:12:00;;;;;;;26.67;16.97;;;;;;;;;;5082150;28;20479;-80
2022/11/21 13:14:33;;;;;;;24.60;17.03;;;;;;;;;;5079067;28;20435;-80
2022/11/21 13:17:04;;;;;;;27.53;16.73;;;;;;;;;;5083322;28;20999;-80
2022/11/21 13:19:34;;;;;;;19.90;15.17;;;;;;;;;;5079101;28;20455;-80
2022/11/21 13:22:02;;;;;;;20.83;15.30;;;;;;;;;;5081965;28;20459;-80
2022/11/21 13:24:47;;;;;;;24.33;16.40;;;;;;;;;;5082141;28;20466;-80
2022/11/21 13:27:24;;;;;;;19.70;14.07;;;;;;;;;;5083426;28;20474;-80
2022/11/21 13:30:06;;;;;;;21.07;14.00;;;;;;;;;;5084891;28;20961;-80
2022/11/21 13:32:38;;;;;;;19.40;12.40;;;;;;;;;;5074904;28;20482;-80
2022/11/21 13:35:30;;;;;;;19.83;12.70;;;;;;;;;;5060457;28;20466;-80
2022/11/21 13:38:01;;;;;;;22.40;13.50;;;;;;;;;;5084870;28;20466;-80
2022/11/21 13:40:35;;;;;;;19.03;12.37;;;;;;;;;;5085913;28;20449;-80
2022/11/21 13:43:13;;;;;;;21.23;12.73;;;;;;;;;;5082976;28;20489;-81
2022/11/21 13:45:42;;;;;;;20.20;13.67;;;;;;;;;;5080404;28;20458;-81
2022/11/21 13:48:23;;;;;;;21.10;13.20;;;;;;;;;;5058660;28;20481;-78
2022/11/21 13:51:17;;;;;;;15.20;10.63;;;;;;;;;;5084099;28;20979;-80
2022/11/21 13:54:01;;;;;;;18.90;11.20;;;;;;;;;;5030449;28;20451;-80
2022/11/21 13:56:34;;;;;;;21.37;12.27;;;;;;;;;;5081886;28;20544;-80
2022/11/21 13:59:06;;;;;;;16.67;11.00;;;;;;;;;;5082641;28;20850;-81
2022/11/21 14:01:48;;;;;;;19.53;11.63;;;;;;;;;;5080428;28;20481;-80
2022/11/21 14:04:29;;;;;;;18.00;11.70;;;;;;;;;;5074537;28;20838;-81
2022/11/21 14:06:55;;;;;;;17.03;12.13;;;;;;;;;;5071751;28;20474;-81
2022/11/21 14:09:26;;;;;;;15.87;10.50;;;;;;;;;;5077995;28;20458;-80
2022/11/21 14:12:00;;;;;;;17.23;10.60;;;;;;;;;;5082648;28;20553;-84
2022/11/21 14:14:33;;;;;;;18.43;11.77;;;;;;;;;;5074932;28;20486;-81
2022/11/21 14:17:17;;;;;;;17.77;10.30;;;;;;;;;;5083540;28;20478;-81
2022/11/21 14:19:45;;;;;;;14.57;9.80;;;;;;;;;;5080132;28;20447;-81
2022/11/21 14:22:16;;;;;;;14.13;9.50;;;;;;;;;;5082309;28;20470;-81
2022/11/21 14:24:43;;;;;;;14.40;10.93;;;;;;;;;;5079519;28;20474;-80
2022/11/21 14:27:16;;;;;;;16.40;10.60;;;;;;;;;;5075358;28;20486;-81
2022/11/21 14:29:42;;;;;;;19.13;9.97;;;;;;;;;;5082136;28;20447;-80
2022/11/21 14:32:13;;;;;;;14.57;9.80;;;;;;;;;;5079986;28;20482;-81
2022/11/21 14:34:40;;;;;;;15.67;10.60;;;;;;;;;;5077354;28;20469;-79
2022/11/21 14:37:06;;;;;;;17.93;9.90;;;;;;;;;;5078103;28;20471;-80
2022/11/21 14:39:34;;;;;;;18.80;10.87;;;;;;;;;;5062795;28;20834;-81
2022/11/21 14:42:02;;;;;;;17.63;11.00;;;;;;;;;;5065408;28;20462;-81
2022/11/21 14:44:29;;;;;;;21.37;12.73;;;;;;;;;;5079644;28;20486;-82
2022/11/21 14:47:05;;;;;;;22.67;12.93;;;;;;;;;;5077574;28;20476;-81
2022/11/21 14:49:31;;;;;;;22.77;12.13;;;;;;;;;;5082340;28;20450;-81
2022/11/21 14:52:01;;;;;;;22.17;12.70;;;;;;;;;;5078307;28;20474;-81
2022/11/21 14:54:29;;;;;;;22.10;12.27;;;;;;;;;;5082278;28;20803;-81
2022/11/21 14:56:57;;;;;;;24.07;14.00;;;;;;;;;;5081887;28;20484;-81